createdAt,value
2019-04-05T00:01:56.705Z,13.27
2019-04-05T00:04:25.371Z,12.27
2019-04-05T00:06:54.089Z,13.27
2019-04-05T00:09:22.872Z,13.70
2019-04-05T00:11:51.685Z,13.00
2019-04-05T00:14:20.400Z,11.67
2019-04-05T00:16:49.119Z,13.30
2019-04-05T00:19:17.815Z,20.10
2019-04-05T00:21:46.719Z,14.30
2019-04-05T00:24:15.430Z,10.93
2019-04-05T00:26:44.131Z,11.67
2019-04-05T00:29:12.916Z,11.50
2019-04-05T00:31:41.615Z,14.70
2019-04-05T00:34:10.266Z,15.03
2019-04-05T00:36:38.975Z,12.80
2019-04-05T00:39:08.850Z,12.60
2019-04-05T00:41:38.324Z,14.40
2019-04-05T00:44:07.183Z,14.87
2019-04-05T00:46:35.917Z,12.93
2019-04-05T00:49:04.567Z,12.07
2019-04-05T00:51:33.245Z,13.70
2019-04-05T00:54:01.955Z,15.07
2019-04-05T00:56:33.049Z,13.87
2019-04-05T00:59:01.755Z,14.23
2019-04-05T01:01:30.555Z,15.60
2019-04-05T01:03:59.246Z,14.83
2019-04-05T01:06:27.949Z,15.60
2019-04-05T01:08:56.943Z,14.47
2019-04-05T01:11:25.616Z,13.57
2019-04-05T01:13:55.438Z,13.10
2019-04-05T01:16:24.316Z,13.20
2019-04-05T01:18:53.029Z,17.30
2019-04-05T01:21:25.003Z,13.73
2019-04-05T01:23:56.313Z,14.10
2019-04-05T01:26:25.603Z,13.37
2019-04-05T01:28:54.301Z,13.20
2019-04-05T01:31:23.287Z,13.17
2019-04-05T01:33:52.004Z,15.03
2019-04-05T01:36:21.821Z,13.77
2019-04-05T01:38:51.092Z,13.70
2019-04-05T01:41:19.785Z,15.10
2019-04-05T01:43:48.456Z,15.83
2019-04-05T01:46:17.530Z,13.37
2019-04-05T01:48:46.241Z,13.60
2019-04-05T01:51:15.560Z,15.87
2019-04-05T01:53:44.390Z,13.03
2019-04-05T01:56:13.283Z,14.77
2019-04-05T01:58:41.955Z,14.73
2019-04-05T02:01:10.776Z,12.73
2019-04-05T02:03:39.471Z,14.47
2019-04-05T02:06:08.208Z,15.80
2019-04-05T02:08:37.453Z,16.63
2019-04-05T02:11:06.486Z,15.63
2019-04-05T02:13:35.333Z,14.43
2019-04-05T02:16:06.607Z,14.10
2019-04-05T02:18:34.742Z,13.33
2019-04-05T02:21:03.462Z,14.13
2019-04-05T02:23:32.266Z,15.73
2019-04-05T02:26:01.317Z,14.70
2019-04-05T02:28:30.008Z,13.83
2019-04-05T02:30:58.727Z,13.70
2019-04-05T02:33:27.435Z,14.43
2019-04-05T02:35:56.198Z,13.77
2019-04-05T02:38:24.880Z,13.83
2019-04-05T02:40:58.671Z,12.77
2019-04-05T02:43:28.822Z,13.87
2019-04-05T02:45:58.764Z,12.80
2019-04-05T02:48:30.465Z,15.60
2019-04-05T02:51:02.054Z,14.87
2019-04-05T02:53:33.663Z,15.20
2019-04-05T02:56:03.715Z,13.23
2019-04-05T02:58:33.669Z,13.53
2019-04-05T03:01:02.779Z,15.57
2019-04-05T03:03:31.523Z,15.90
2019-04-05T03:06:00.352Z,16.93
2019-04-05T03:08:29.247Z,14.40
2019-04-05T03:11:10.081Z,15.77
2019-04-05T03:13:44.860Z,14.63
2019-04-05T03:16:19.517Z,14.67
2019-04-05T03:18:51.154Z,13.90
2019-04-05T03:21:22.182Z,14.33
2019-04-05T03:24:11.636Z,14.67
2019-04-05T03:26:43.382Z,14.10
2019-04-05T03:29:12.339Z,13.37
2019-04-05T03:31:41.449Z,17.13
2019-04-05T03:34:10.600Z,13.43
2019-04-05T03:36:39.712Z,16.40
2019-04-05T03:39:08.790Z,16.80
2019-04-05T03:41:37.554Z,21.23
2019-04-05T03:44:08.666Z,18.67
2019-04-05T03:46:37.848Z,16.83
2019-04-05T03:49:07.038Z,18.73
2019-04-05T03:51:35.909Z,19.33
2019-04-05T03:54:05.451Z,21.20
2019-04-05T03:56:37.810Z,18.73
2019-04-05T03:59:05.124Z,20.07
2019-04-05T04:01:34.171Z,22.10
2019-04-05T04:04:03.549Z,20.50
2019-04-05T04:06:32.628Z,18.83
2019-04-05T04:09:01.538Z,19.70
2019-04-05T04:11:39.148Z,19.80
2019-04-05T04:14:08.512Z,16.00
2019-04-05T04:16:37.440Z,18.80
2019-04-05T04:19:06.322Z,20.27
2019-04-05T04:21:43.917Z,18.40
2019-04-05T04:24:12.922Z,16.77
2019-04-05T04:26:42.598Z,16.40
2019-04-05T04:29:11.651Z,17.07
2019-04-05T04:31:41.020Z,18.57
2019-04-05T04:34:10.124Z,18.53
2019-04-05T04:36:39.015Z,19.50
2019-04-05T04:39:07.914Z,16.47
2019-04-05T04:41:36.986Z,23.93
2019-04-05T04:44:05.836Z,16.60
2019-04-05T04:46:34.503Z,17.53
2019-04-05T04:49:03.897Z,17.97
2019-04-05T04:51:33.571Z,18.73
2019-04-05T04:54:02.865Z,20.07
2019-04-05T04:56:31.746Z,19.90
2019-04-05T04:59:00.754Z,20.90
2019-04-05T05:01:29.752Z,18.80
2019-04-05T05:03:58.712Z,20.50
2019-04-05T05:06:27.706Z,20.77
2019-04-05T05:08:56.424Z,19.50
2019-04-05T05:11:25.142Z,17.80
2019-04-05T05:13:53.849Z,17.20
2019-04-05T05:16:22.958Z,20.10
2019-04-05T05:18:52.369Z,19.43
2019-04-05T05:21:21.578Z,20.40
2019-04-05T05:23:50.785Z,20.03
2019-04-05T05:26:19.850Z,20.90
2019-04-05T05:28:49.050Z,19.00
2019-04-05T05:31:18.404Z,18.83
2019-04-05T05:33:47.768Z,19.33
2019-04-05T05:36:16.837Z,20.07
2019-04-05T05:38:45.732Z,32.43
2019-04-05T05:41:15.476Z,21.43
2019-04-05T05:43:44.291Z,22.13
2019-04-05T05:46:13.149Z,20.40
2019-04-05T05:48:42.971Z,22.83
2019-04-05T05:51:11.641Z,19.00
2019-04-05T05:53:40.355Z,22.93
2019-04-05T05:56:09.061Z,21.13
2019-04-05T05:58:37.771Z,20.87
2019-04-05T06:01:06.651Z,19.43
2019-04-05T06:03:35.379Z,21.47
2019-04-05T06:06:04.896Z,20.10
2019-04-05T06:08:33.852Z,21.67
2019-04-05T06:11:02.539Z,17.93
2019-04-05T06:13:31.338Z,20.87
2019-04-05T06:16:00.380Z,17.83
2019-04-05T06:18:29.416Z,19.10
2019-04-05T06:20:58.260Z,19.87
2019-04-05T06:23:33.415Z,17.10
2019-04-05T06:25:57.657Z,19.77
2019-04-05T06:28:26.481Z,22.13
2019-04-05T06:30:57.070Z,20.73
2019-04-05T06:33:31.711Z,20.70
2019-04-05T06:35:56.200Z,20.70
2019-04-05T06:38:24.917Z,22.67
2019-04-05T06:40:53.599Z,20.53
2019-04-05T06:43:22.406Z,21.37
2019-04-05T06:45:51.257Z,17.37
2019-04-05T06:48:20.033Z,19.57
2019-04-05T06:50:48.773Z,17.77
2019-04-05T06:53:17.480Z,18.80
2019-04-05T06:55:46.195Z,18.83
2019-04-05T06:58:19.637Z,18.77
2019-04-05T07:00:56.358Z,23.10
2019-04-05T07:03:15.855Z,24.10
2019-04-05T07:05:44.527Z,26.17
2019-04-05T07:08:13.245Z,23.47
2019-04-05T07:10:45.334Z,24.17
2019-04-05T07:13:14.277Z,28.43
2019-04-05T07:15:43.170Z,26.87
2019-04-05T07:18:11.862Z,27.17
2019-04-05T07:20:40.534Z,24.87
2019-04-05T07:23:18.865Z,22.50
2019-04-05T07:25:51.086Z,27.90
2019-04-05T07:28:25.866Z,20.63
2019-04-05T07:30:54.643Z,20.43
2019-04-05T07:33:23.452Z,22.20
2019-04-05T07:35:52.205Z,19.40
2019-04-05T07:38:20.878Z,23.07
2019-04-05T07:40:49.597Z,20.90
2019-04-05T07:43:18.652Z,20.60
2019-04-05T07:45:47.587Z,20.73
2019-04-05T07:48:16.255Z,18.00
2019-04-05T07:50:44.959Z,23.73
2019-04-05T07:53:13.638Z,22.60
2019-04-05T07:55:43.395Z,21.67
2019-04-05T07:58:12.094Z,23.00
2019-04-05T08:00:52.456Z,18.90
2019-04-05T08:03:22.249Z,19.60
2019-04-05T08:05:52.087Z,20.87
2019-04-05T08:08:23.752Z,20.20
2019-04-05T08:10:53.847Z,15.87
2019-04-05T08:13:24.283Z,18.10
2019-04-05T08:15:53.003Z,17.17
2019-04-05T08:18:21.687Z,14.10
2019-04-05T08:20:50.380Z,13.63
2019-04-05T08:23:19.156Z,14.43
2019-04-05T08:25:47.909Z,13.27
2019-04-05T08:28:16.624Z,15.27
2019-04-05T08:30:45.349Z,11.60
2019-04-05T08:33:14.085Z,16.23
2019-04-05T08:35:42.766Z,16.00
2019-04-05T08:38:11.460Z,16.30
2019-04-05T08:40:40.643Z,13.50
2019-04-05T08:43:09.354Z,13.43
2019-04-05T08:45:38.125Z,12.90
2019-04-05T08:48:06.787Z,11.73
2019-04-05T08:50:35.485Z,12.90
2019-04-05T08:53:04.162Z,13.73
2019-04-05T08:55:32.890Z,10.70
2019-04-05T08:58:01.791Z,11.60
2019-04-05T09:00:30.480Z,12.60
2019-04-05T09:02:59.178Z,13.50
2019-04-05T09:05:27.905Z,14.80
2019-04-05T09:07:56.576Z,16.23
2019-04-05T09:10:25.434Z,17.17
2019-04-05T09:12:54.150Z,14.30
2019-04-05T09:15:22.837Z,18.23
2019-04-05T09:17:51.512Z,15.77
2019-04-05T09:20:20.228Z,14.33
2019-04-05T09:22:49.040Z,15.47
2019-04-05T09:25:19.816Z,16.90
2019-04-05T09:27:48.171Z,15.70
2019-04-05T09:30:17.380Z,17.60
2019-04-05T09:32:46.105Z,16.37
2019-04-05T09:35:14.853Z,17.07
2019-04-05T09:37:43.600Z,16.77
2019-04-05T09:40:12.631Z,20.33
2019-04-05T09:42:41.728Z,19.80
2019-04-05T09:45:10.812Z,17.87
2019-04-05T09:47:39.486Z,20.17
2019-04-05T09:50:09.566Z,20.80
2019-04-05T09:52:40.075Z,19.97
2019-04-05T09:55:08.967Z,17.83
2019-04-05T09:57:37.657Z,16.67
2019-04-05T10:00:10.827Z,17.23
2019-04-05T10:02:39.535Z,18.90
2019-04-05T10:05:08.436Z,16.80
2019-04-05T10:07:44.135Z,16.83
2019-04-05T10:10:07.812Z,15.80
2019-04-05T10:12:36.605Z,17.73
2019-04-05T10:15:07.101Z,14.70
2019-04-05T10:17:35.927Z,24.33
2019-04-05T10:20:06.898Z,18.13
2019-04-05T10:22:35.573Z,14.97
2019-04-05T10:25:06.570Z,15.03
2019-04-05T10:27:35.370Z,17.70
2019-04-05T10:30:06.527Z,18.50
2019-04-05T10:32:35.259Z,17.20
2019-04-05T10:35:03.930Z,16.43
2019-04-05T10:37:32.597Z,13.77
2019-04-05T10:40:01.334Z,14.47
2019-04-05T10:42:36.185Z,16.27
2019-04-05T10:45:07.666Z,13.27
2019-04-05T10:47:36.331Z,14.60
2019-04-05T10:50:08.174Z,13.03
2019-04-05T10:52:37.294Z,15.73
2019-04-05T10:55:06.965Z,15.80
2019-04-05T10:57:35.671Z,15.93
2019-04-05T11:00:07.127Z,18.23
2019-04-05T11:02:35.815Z,19.37
2019-04-05T11:05:04.940Z,18.83
2019-04-05T11:07:35.049Z,17.07
2019-04-05T11:10:06.318Z,18.23
2019-04-05T11:12:35.030Z,17.30
2019-04-05T11:15:05.687Z,17.57
2019-04-05T11:17:34.405Z,17.37
2019-04-05T11:20:20.170Z,16.90
2019-04-05T11:22:35.446Z,14.97
2019-04-05T11:25:08.062Z,15.83
2019-04-05T11:27:38.531Z,14.23
2019-04-05T11:30:08.724Z,16.33
2019-04-05T11:32:37.625Z,16.43
2019-04-05T11:35:07.959Z,16.53
2019-04-05T11:37:39.685Z,14.70
2019-04-05T11:40:10.629Z,14.80
2019-04-05T11:42:41.096Z,16.30
2019-04-05T11:45:10.474Z,15.50
2019-04-05T11:47:40.969Z,17.77
2019-04-05T11:50:11.534Z,14.97
2019-04-05T11:52:40.439Z,14.83
2019-04-05T11:55:09.622Z,15.73
2019-04-05T11:57:40.964Z,17.67
2019-04-05T12:00:14.237Z,16.30
2019-04-05T12:02:44.513Z,16.90
2019-04-05T12:05:14.779Z,15.57
2019-04-05T12:07:43.567Z,14.43
2019-04-05T12:10:13.434Z,14.97
2019-04-05T12:12:42.249Z,14.60
2019-04-05T12:15:11.199Z,13.30
2019-04-05T12:17:39.903Z,13.20
2019-04-05T12:20:09.165Z,13.03
2019-04-05T12:22:38.001Z,12.90
2019-04-05T12:25:09.647Z,14.37
2019-04-05T12:27:38.371Z,11.70
2019-04-05T12:30:09.646Z,14.23
2019-04-05T12:32:41.288Z,12.10
2019-04-05T12:35:09.397Z,12.53
2019-04-05T12:37:49.471Z,13.60
2019-04-05T12:40:10.303Z,13.33
2019-04-05T12:42:42.604Z,15.67
2019-04-05T12:45:14.686Z,13.67
2019-04-05T12:47:41.296Z,17.77
2019-04-05T12:50:14.161Z,15.27
2019-04-05T12:52:41.198Z,12.77
2019-04-05T12:55:11.098Z,14.70
2019-04-05T12:57:39.994Z,13.07
2019-04-05T13:00:13.412Z,12.80
2019-04-05T13:02:42.012Z,11.97
2019-04-05T13:05:11.102Z,12.73
2019-04-05T13:07:39.802Z,13.50
2019-04-05T13:10:08.843Z,11.30
2019-04-05T13:12:37.677Z,15.30
2019-04-05T13:15:13.704Z,11.17
2019-04-05T13:17:37.544Z,12.87
2019-04-05T13:20:08.583Z,12.10
2019-04-05T13:22:37.294Z,11.87
2019-04-05T13:25:10.766Z,13.50
2019-04-05T13:27:41.309Z,12.90
2019-04-05T13:30:08.901Z,12.50
2019-04-05T13:32:37.643Z,18.00
2019-04-05T13:35:07.722Z,20.50
2019-04-05T13:37:36.398Z,19.33
2019-04-05T13:40:07.633Z,20.00
2019-04-05T13:42:36.336Z,20.43
2019-04-05T13:45:08.462Z,18.60
2019-04-05T13:47:38.976Z,17.57
2019-04-05T13:50:11.029Z,15.93
2019-04-05T13:52:41.475Z,15.30
2019-04-05T13:55:11.325Z,18.13
2019-04-05T13:57:40.879Z,15.73
2019-04-05T14:00:11.320Z,15.83
2019-04-05T14:02:40.048Z,15.87
2019-04-05T14:05:09.249Z,19.40
2019-04-05T14:07:37.939Z,14.70
2019-04-05T14:10:10.522Z,19.67
2019-04-05T14:12:40.207Z,23.97
2019-04-05T14:15:11.254Z,27.13
2019-04-05T14:17:44.073Z,29.50
2019-04-05T14:20:10.824Z,30.23
2019-04-05T14:22:39.519Z,29.47
2019-04-05T14:25:08.799Z,36.83
2019-04-05T14:27:37.635Z,33.30
2019-04-05T14:30:07.944Z,33.23
2019-04-05T14:32:36.623Z,32.13
2019-04-05T14:35:08.263Z,30.80
2019-04-05T14:37:37.197Z,27.30
2019-04-05T14:40:08.113Z,30.13
2019-04-05T14:42:36.784Z,30.23
2019-04-05T14:45:07.190Z,25.73
2019-04-05T14:47:35.989Z,27.30
2019-04-05T14:50:07.226Z,32.27
2019-04-05T14:52:36.187Z,31.03
2019-04-05T14:55:05.718Z,26.77
2019-04-05T14:57:35.608Z,25.77
2019-04-05T15:00:14.560Z,25.93
2019-04-05T15:02:43.752Z,24.20
2019-04-05T15:05:12.086Z,19.20
2019-04-05T15:07:41.086Z,21.13
2019-04-05T15:10:10.265Z,21.10
2019-04-05T15:12:38.996Z,23.97
2019-04-05T15:15:08.929Z,21.53
2019-04-05T15:17:47.159Z,26.03
2019-04-05T15:20:09.096Z,19.40
2019-04-05T15:22:41.562Z,21.33
2019-04-05T15:25:09.177Z,23.30
2019-04-05T15:27:37.864Z,20.43
2019-04-05T15:30:07.350Z,26.20
2019-04-05T15:32:37.282Z,23.73
2019-04-05T15:35:07.598Z,21.53
2019-04-05T15:37:37.681Z,23.43
2019-04-05T15:40:08.019Z,19.60
2019-04-05T15:42:36.718Z,19.13
2019-04-05T15:45:09.773Z,23.63
2019-04-05T15:47:38.762Z,21.27
2019-04-05T15:50:08.547Z,20.97
2019-04-05T15:52:37.304Z,18.90
2019-04-05T15:55:06.885Z,19.80
2019-04-05T15:57:35.683Z,18.00
2019-04-05T16:00:26.052Z,19.93
2019-04-05T16:02:55.105Z,20.03
2019-04-05T16:05:23.922Z,27.30
2019-04-05T16:07:52.606Z,22.40
2019-04-05T16:10:21.402Z,23.10
2019-04-05T16:12:50.114Z,23.53
2019-04-05T16:15:19.041Z,24.53
2019-04-05T16:17:47.728Z,21.50
2019-04-05T16:20:16.735Z,21.60
2019-04-05T16:22:45.696Z,23.30
2019-04-05T16:25:14.661Z,24.80
2019-04-05T16:27:43.407Z,22.57
2019-04-05T16:30:13.799Z,22.33
2019-04-05T16:32:42.568Z,23.47
2019-04-05T16:35:14.327Z,24.27
2019-04-05T16:37:41.702Z,23.77
2019-04-05T16:40:11.143Z,22.47
2019-04-05T16:42:39.814Z,24.03
2019-04-05T16:45:10.272Z,23.57
2019-04-05T16:47:39.014Z,23.80
2019-04-05T16:50:09.529Z,22.70
2019-04-05T16:52:44.863Z,21.97
2019-04-05T16:55:10.189Z,22.73
2019-04-05T16:57:39.100Z,30.57
2019-04-05T17:00:12.776Z,25.03
2019-04-05T17:02:41.510Z,25.97
2019-04-05T17:05:11.275Z,24.10
2019-04-05T17:07:41.315Z,25.17
2019-04-05T17:10:11.152Z,23.17
2019-04-05T17:12:39.906Z,27.33
2019-04-05T17:15:09.133Z,25.43
2019-04-05T17:17:37.858Z,27.07
2019-04-05T17:20:07.276Z,30.30
2019-04-05T17:22:35.999Z,25.63
2019-04-05T17:25:07.412Z,24.50
2019-04-05T17:27:36.195Z,26.07
2019-04-05T17:30:06.693Z,25.57
2019-04-05T17:32:35.415Z,24.17
2019-04-05T17:35:05.420Z,26.87
2019-04-05T17:37:34.106Z,29.47
2019-04-05T17:40:03.281Z,29.27
2019-04-05T17:42:34.676Z,31.70
2019-04-05T17:45:02.472Z,26.70
2019-04-05T17:47:31.272Z,27.27
2019-04-05T17:49:59.986Z,22.43
2019-04-05T17:52:29.043Z,32.37
2019-04-05T17:54:57.731Z,26.17
2019-04-05T17:57:26.899Z,41.77
2019-04-05T17:59:55.653Z,28.83
2019-04-05T18:02:24.516Z,23.97
2019-04-05T18:04:53.347Z,25.37
2019-04-05T18:07:22.018Z,30.60
2019-04-05T18:09:51.061Z,28.03
2019-04-05T18:12:19.759Z,27.67
2019-04-05T18:14:50.009Z,28.20
2019-04-05T18:17:18.992Z,29.07
2019-04-05T18:19:47.864Z,22.13
2019-04-05T18:22:16.896Z,27.60
2019-04-05T18:24:45.633Z,27.50
2019-04-05T18:27:14.383Z,24.27
2019-04-05T18:29:43.104Z,29.13
2019-04-05T18:32:11.897Z,26.83
2019-04-05T18:34:40.592Z,24.83
2019-04-05T18:37:09.348Z,25.50
2019-04-05T18:39:38.093Z,27.23
2019-04-05T18:42:07.871Z,24.30
2019-04-05T18:44:36.653Z,26.00
2019-04-05T18:47:05.438Z,28.93
2019-04-05T18:49:34.149Z,27.17
2019-04-05T18:52:02.918Z,23.90
2019-04-05T18:54:31.678Z,25.57
2019-04-05T18:57:00.395Z,26.27
2019-04-05T18:59:29.333Z,32.47
2019-04-05T19:01:59.676Z,26.20
2019-04-05T19:04:28.383Z,28.93
2019-04-05T19:06:57.281Z,26.40
2019-04-05T19:09:26.039Z,28.20
2019-04-05T19:11:54.862Z,25.80
2019-04-05T19:14:23.639Z,27.20
2019-04-05T19:16:52.583Z,31.97
2019-04-05T19:19:21.350Z,25.50
2019-04-05T19:21:50.077Z,28.20
2019-04-05T19:24:18.767Z,37.00
2019-04-05T19:26:47.483Z,24.97
2019-04-05T19:29:16.190Z,29.80
2019-04-05T19:49:22.147Z,36.17
2019-04-05T19:51:50.836Z,32.43
2019-04-05T19:54:19.603Z,36.70
2019-04-05T19:56:48.374Z,32.10
2019-04-05T19:59:17.544Z,39.57
2019-04-05T20:01:46.247Z,32.80
2019-04-05T20:04:15.060Z,39.90
2019-04-05T20:06:44.259Z,34.80
2019-04-05T20:09:13.180Z,35.70
2019-04-05T20:11:41.918Z,34.37
2019-04-05T20:14:10.633Z,30.20
2019-04-05T20:16:39.330Z,29.07
2019-04-05T20:19:09.491Z,34.47
2019-04-05T20:21:38.210Z,35.70
2019-04-05T20:24:14.111Z,36.57
2019-04-05T20:26:37.898Z,34.83
2019-04-05T20:29:06.721Z,32.10
2019-04-05T20:31:35.487Z,37.07
2019-04-05T20:34:04.200Z,34.93
2019-04-05T20:36:32.978Z,41.17
2019-04-05T20:39:01.797Z,37.97
2019-04-05T20:41:30.689Z,35.93
2019-04-05T20:43:59.623Z,37.93
2019-04-05T20:46:28.350Z,42.63
2019-04-05T20:48:57.105Z,45.00
2019-04-05T20:51:25.788Z,32.17
2019-04-05T20:53:54.510Z,39.27
2019-04-05T20:56:23.202Z,36.23
2019-04-05T20:58:51.942Z,34.33
2019-04-05T21:01:20.611Z,35.47
2019-04-05T21:03:49.488Z,33.70
2019-04-05T21:06:18.216Z,36.60
2019-04-05T21:08:47.035Z,41.23
2019-04-05T21:11:15.813Z,40.50
2019-04-05T21:13:44.580Z,41.10
2019-04-05T21:16:13.346Z,33.90
2019-04-05T21:18:42.068Z,37.70
2019-04-05T21:21:10.780Z,36.90
2019-04-05T21:23:39.478Z,34.90
2019-04-05T21:26:08.182Z,34.43
2019-04-05T21:28:37.071Z,34.57
2019-04-05T21:31:05.863Z,37.20
2019-04-05T21:33:34.705Z,37.27
2019-04-05T21:36:03.678Z,38.67
2019-04-05T21:38:32.407Z,33.00
2019-04-05T21:41:02.810Z,38.10
2019-04-05T21:43:31.516Z,40.20
2019-04-05T21:46:02.338Z,36.27
2019-04-05T21:48:31.079Z,34.77
2019-04-05T21:50:59.780Z,40.63
2019-04-05T21:53:28.558Z,33.63
2019-04-05T21:55:57.307Z,34.33
2019-04-05T21:58:26.107Z,36.23
2019-04-05T22:01:15.648Z,33.53
2019-04-05T22:03:44.390Z,32.70
2019-04-05T22:06:13.181Z,39.80
2019-04-05T22:08:41.923Z,41.17
2019-04-05T22:11:10.842Z,39.60
2019-04-05T22:13:39.530Z,38.07
2019-04-05T22:16:08.210Z,40.97
2019-04-05T22:18:37.059Z,37.20
2019-04-05T22:21:05.734Z,36.67
2019-04-05T22:23:35.958Z,39.83
2019-04-05T22:26:04.658Z,41.23
2019-04-05T22:28:33.382Z,40.50
2019-04-05T22:31:02.058Z,42.00
2019-04-05T22:33:30.784Z,38.53
2019-04-05T22:35:59.748Z,37.53
2019-04-05T22:38:28.652Z,34.87
2019-04-05T22:40:57.559Z,40.93
2019-04-05T22:43:26.282Z,34.80
2019-04-05T22:45:54.952Z,40.97
2019-04-05T22:48:23.801Z,36.90
2019-04-05T22:50:52.591Z,38.93
2019-04-05T22:53:21.426Z,39.23
2019-04-05T22:55:50.149Z,35.47
2019-04-05T22:58:18.868Z,40.23
2019-04-05T23:00:47.565Z,39.23
2019-04-05T23:03:16.566Z,40.87
2019-04-05T23:05:45.374Z,41.50
2019-04-05T23:08:14.099Z,35.07
2019-04-05T23:10:42.834Z,38.43
2019-04-05T23:13:11.656Z,32.57
2019-04-05T23:15:40.440Z,42.23
2019-04-05T23:18:09.281Z,36.70
2019-04-05T23:20:38.034Z,38.20
2019-04-05T23:23:06.764Z,35.83
2019-04-05T23:25:35.604Z,40.80
2019-04-05T23:28:04.389Z,38.10
2019-04-05T23:30:33.570Z,38.57
2019-04-05T23:33:02.282Z,43.90
2019-04-05T23:35:30.956Z,36.53
2019-04-05T23:37:59.640Z,45.30
2019-04-05T23:40:28.359Z,37.43
2019-04-05T23:42:57.234Z,38.97
2019-04-05T23:45:25.940Z,39.27
2019-04-05T23:47:54.645Z,42.93
2019-04-05T23:50:23.362Z,49.87
2019-04-05T23:52:52.036Z,38.20
2019-04-05T23:55:20.750Z,36.80
2019-04-05T23:57:49.593Z,45.53
